Time;durP1;ratioP1;P1;durP2;ratioP2;P2;SDS_P1;SDS_P2;PMS_P1;PMS_P2;Temp;Humidity;BMP_temperature;BMP_pressure;BME280_temperature;BME280_humidity;BME280_pressure;Samples;Min_cycle;Max_cycle;Signal;HPM_P1;HPM_P2
2022/01/22 00:00:45;;;;;;;18.40;11.03;;;1.20;99.90;;;;;;5053924;28;20175;-74
2022/01/22 00:03:11;;;;;;;20.93;11.63;;;1.20;99.90;;;;;;5053796;28;20221;-74
2022/01/22 00:05:37;;;;;;;20.20;10.80;;;1.20;99.90;;;;;;5053110;28;20195;-74
2022/01/22 00:08:03;;;;;;;18.30;10.40;;;1.30;99.90;;;;;;5053458;28;20182;-74
2022/01/22 00:10:29;;;;;;;16.83;10.73;;;1.30;99.90;;;;;;5053631;28;20185;-74
2022/01/22 00:15:43;;;;;;;17.70;10.13;;;1.30;99.90;;;;;;4997286;28;20217;-74
2022/01/22 00:18:09;;;;;;;17.57;9.77;;;1.40;99.90;;;;;;5053602;28;20616;-74
2022/01/22 00:20:36;;;;;;;18.67;9.40;;;1.40;99.90;;;;;;5053586;28;20667;-74
2022/01/22 00:23:03;;;;;;;17.73;9.50;;;1.40;99.90;;;;;;5053388;28;20283;-74
2022/01/22 00:25:28;;;;;;;13.07;9.17;;;1.40;99.90;;;;;;5052687;28;20206;-74
2022/01/22 00:27:54;;;;;;;23.60;10.00;;;1.40;99.90;;;;;;5053243;28;20242;-74
2022/01/22 00:30:23;;;;;;;18.00;9.70;;;1.40;99.90;;;;;;5053505;28;20182;-73
2022/01/22 00:32:49;;;;;;;16.57;9.70;;;1.50;99.90;;;;;;5053104;28;20308;-74
2022/01/22 00:35:16;;;;;;;16.10;9.10;;;1.40;99.90;;;;;;5052459;28;20575;-74
2022/01/22 00:37:43;;;;;;;16.73;9.67;;;1.40;99.90;;;;;;5053001;28;20183;-74
2022/01/22 00:40:11;;;;;;;17.40;10.10;;;1.50;99.90;;;;;;5052630;28;20198;-74
2022/01/22 00:42:40;;;;;;;16.23;8.47;;;1.50;99.90;;;;;;5053009;28;20297;-74
2022/01/22 00:45:07;;;;;;;15.43;8.50;;;1.40;99.90;;;;;;5052409;28;20188;-74
2022/01/22 00:47:33;;;;;;;17.00;8.27;;;1.50;99.90;;;;;;5052942;28;20171;-74
2022/01/22 00:49:59;;;;;;;13.27;9.10;;;1.50;99.90;;;;;;5052921;28;20175;-74
2022/01/22 00:52:24;;;;;;;15.23;8.57;;;1.50;99.90;;;;;;5052843;28;20641;-74
2022/01/22 00:54:50;;;;;;;18.70;8.90;;;1.50;99.90;;;;;;5051897;28;20214;-74
2022/01/22 00:57:16;;;;;;;15.67;9.10;;;1.60;99.90;;;;;;5052992;28;20205;-75
2022/01/22 00:59:42;;;;;;;14.67;8.37;;;1.60;99.90;;;;;;5052833;28;20180;-74
2022/01/22 01:02:07;;;;;;;16.60;8.27;;;1.50;99.90;;;;;;5052700;28;20203;-74
2022/01/22 01:04:36;;;;;;;11.07;7.87;;;1.60;99.90;;;;;;5052084;28;20187;-74
2022/01/22 01:07:04;;;;;;;12.17;8.00;;;1.60;99.90;;;;;;5052100;28;20639;-75
2022/01/22 01:09:29;;;;;;;14.00;8.23;;;1.60;99.90;;;;;;5052611;28;20175;-74
2022/01/22 01:12:00;;;;;;;15.47;8.70;;;1.60;99.90;;;;;;5052546;28;20520;-75
2022/01/22 01:14:33;;;;;;;14.03;8.00;;;1.60;99.90;;;;;;5051938;28;20186;-75
2022/01/22 01:33:19;;;;;;;11.67;6.93;;;1.70;99.90;;;;;;5052359;28;20266;-75
2022/01/22 01:35:45;;;;;;;11.47;7.97;;;1.70;99.90;;;;;;5051558;28;20278;-74
2022/01/22 01:38:10;;;;;;;11.47;7.17;;;1.60;99.90;;;;;;5051902;28;20189;-74
2022/01/22 01:40:40;;;;;;;13.53;7.20;;;1.70;99.90;;;;;;5051942;28;20177;-74
2022/01/22 01:43:12;;;;;;;13.40;7.60;;;1.50;99.90;;;;;;5051730;28;20676;-74
2022/01/22 01:45:38;;;;;;;12.70;7.47;;;1.60;99.90;;;;;;5051377;28;20278;-74
2022/01/22 01:48:10;;;;;;;11.83;7.83;;;1.60;99.90;;;;;;5051854;28;20210;-74
2022/01/22 01:50:38;;;;;;;12.73;7.53;;;1.70;99.90;;;;;;5051733;28;20179;-74
2022/01/22 01:53:32;;;;;;;13.67;8.00;;;1.70;99.90;;;;;;5051638;28;20224;-74
2022/01/22 01:58:24;;;;;;;16.17;8.17;;;1.70;99.90;;;;;;5051774;28;20209;-75
2022/01/22 02:00:50;;;;;;;11.77;7.83;;;1.70;99.90;;;;;;5051178;28;20187;-75
2022/01/22 02:03:16;;;;;;;10.57;7.23;;;1.70;99.90;;;;;;5051195;28;20219;-75
2022/01/22 02:05:42;;;;;;;11.93;7.40;;;1.70;99.90;;;;;;5051319;28;20787;-75
2022/01/22 02:08:08;;;;;;;13.80;7.60;;;1.70;99.90;;;;;;5050736;28;20171;-75
2022/01/22 02:10:40;;;;;;;11.77;7.70;;;1.70;99.90;;;;;;5051591;28;20174;-74
2022/01/22 02:24:06;;;;;;;11.53;6.87;;;1.80;99.90;;;;;;5051283;28;20217;-75
2022/01/22 02:26:32;;;;;;;15.80;7.33;;;1.80;99.90;;;;;;5051041;28;20195;-75
2022/01/22 02:28:57;;;;;;;9.63;7.00;;;1.80;99.90;;;;;;5051475;28;20171;-75
2022/01/22 02:36:40;;;;;;;12.43;7.47;;;1.80;99.90;;;;;;5051012;28;20289;-75
2022/01/22 02:39:13;;;;;;;12.80;7.60;;;1.90;99.90;;;;;;5051145;28;20659;-75
2022/01/22 02:41:47;;;;;;;13.63;7.50;;;1.90;99.90;;;;;;5051397;28;20190;-75
2022/01/22 02:44:25;;;;;;;13.43;7.03;;;1.90;99.90;;;;;;5051150;28;20249;-75
2022/01/22 02:46:51;;;;;;;9.23;6.93;;;1.90;99.90;;;;;;5051046;28;20567;-75
2022/01/22 02:49:16;;;;;;;11.40;7.13;;;1.90;99.90;;;;;;5051111;28;20176;-75
2022/01/22 02:51:42;;;;;;;10.53;7.43;;;1.90;99.90;;;;;;5051236;28;20178;-75
2022/01/22 02:54:07;;;;;;;11.20;7.23;;;1.90;99.90;;;;;;5051191;28;20179;-75
2022/01/22 02:56:33;;;;;;;10.80;7.20;;;2.00;99.90;;;;;;5050607;28;20320;-75
2022/01/22 02:59:00;;;;;;;11.43;7.27;;;2.00;99.90;;;;;;5051097;28;20183;-75
2022/01/22 03:01:26;;;;;;;9.47;7.50;;;2.00;99.90;;;;;;5051267;28;20222;-76
2022/01/22 03:03:51;;;;;;;10.97;7.50;;;1.90;99.90;;;;;;5051425;28;20214;-75
2022/01/22 03:06:17;;;;;;;12.17;8.00;;;2.00;99.90;;;;;;5050693;28;20610;-75
2022/01/22 03:08:45;;;;;;;15.57;8.20;;;2.00;99.90;;;;;;5050877;28;20580;-75
2022/01/22 03:11:20;;;;;;;11.00;7.77;;;1.90;99.90;;;;;;5051114;28;20201;-75
2022/01/22 03:19:18;;;;;;;12.63;7.17;;;2.00;99.90;;;;;;5052970;28;20171;-75
2022/01/22 03:21:55;;;;;;;11.10;7.00;;;2.00;99.90;;;;;;5054040;28;20656;-75
2022/01/22 03:27:22;;;;;;;11.27;7.20;;;1.90;99.90;;;;;;5054565;28;20178;-75
2022/01/22 03:29:47;;;;;;;13.90;7.33;;;2.00;99.90;;;;;;5054560;28;20191;-75
2022/01/22 03:32:13;;;;;;;12.73;6.97;;;2.00;99.90;;;;;;5054504;28;20191;-75
2022/01/22 03:34:54;;;;;;;11.37;7.20;;;2.00;99.90;;;;;;5053783;28;20662;-74
2022/01/22 03:37:19;;;;;;;10.73;6.77;;;2.00;99.90;;;;;;5054584;28;20262;-75
2022/01/22 03:39:46;;;;;;;10.00;7.20;;;2.00;99.90;;;;;;5054252;28;20203;-75
2022/01/22 03:42:11;;;;;;;11.23;7.47;;;2.00;99.90;;;;;;5054479;28;20176;-75
2022/01/22 03:44:37;;;;;;;11.63;6.70;;;2.10;99.90;;;;;;5053786;28;20190;-75
2022/01/22 03:47:04;;;;;;;12.97;7.20;;;2.10;99.90;;;;;;5054186;28;20198;-74
2022/01/22 03:49:30;;;;;;;11.50;7.03;;;2.10;99.90;;;;;;5053929;28;20183;-74
2022/01/22 03:51:56;;;;;;;9.67;6.67;;;2.10;99.90;;;;;;5054251;28;20171;-74
2022/01/22 03:54:21;;;;;;;10.37;7.47;;;2.20;99.90;;;;;;5053732;28;20175;-75
2022/01/22 03:56:47;;;;;;;11.33;6.97;;;2.20;99.90;;;;;;5053631;28;20195;-75
2022/01/22 03:59:14;;;;;;;12.87;7.90;;;2.20;99.90;;;;;;5054140;28;20224;-74
2022/01/22 04:04:34;;;;;;;10.67;7.47;;;2.10;99.90;;;;;;5053271;28;20242;-74
2022/01/22 04:09:31;;;;;;;14.40;8.20;;;2.20;99.90;;;;;;5053737;28;20179;-75
2022/01/22 04:11:58;;;;;;;10.77;7.47;;;2.20;99.90;;;;;;5053679;28;20628;-75
2022/01/22 04:14:29;;;;;;;11.93;8.90;;;2.20;99.90;;;;;;5053118;28;20179;-75
2022/01/22 04:17:19;;;;;;;11.17;8.07;;;2.20;99.90;;;;;;5053542;28;20672;-74
2022/01/22 04:25:19;;;;;;;14.03;8.77;;;2.20;99.90;;;;;;5052797;28;20250;-74
2022/01/22 04:27:44;;;;;;;11.97;8.90;;;2.20;99.90;;;;;;5053321;28;20532;-74
2022/01/22 04:30:10;;;;;;;12.00;8.67;;;2.20;99.90;;;;;;5052438;28;20187;-74
2022/01/22 04:32:35;;;;;;;11.57;8.40;;;2.20;99.90;;;;;;5053191;28;20210;-74
2022/01/22 04:35:02;;;;;;;13.10;9.00;;;2.20;99.90;;;;;;5052622;28;20195;-74
2022/01/22 04:37:28;;;;;;;12.33;8.80;;;2.20;99.90;;;;;;5053255;28;21006;-74
2022/01/22 04:39:53;;;;;;;15.43;8.93;;;2.20;99.90;;;;;;5053061;28;20183;-74
2022/01/22 04:42:20;;;;;;;14.20;9.30;;;2.20;99.90;;;;;;5052934;28;20179;-74
2022/01/22 04:44:56;;;;;;;13.70;8.90;;;2.20;99.90;;;;;;5052601;28;20254;-74
2022/01/22 04:47:36;;;;;;;11.90;8.37;;;2.20;99.90;;;;;;5053079;28;20182;-74
2022/01/22 04:55:31;;;;;;;12.90;8.93;;;2.20;99.90;;;;;;5052272;28;20194;-74
2022/01/22 04:58:03;;;;;;;12.30;9.17;;;2.20;99.90;;;;;;5052921;28;20179;-74
2022/01/22 05:00:34;;;;;;;13.67;9.43;;;2.20;99.90;;;;;;5052644;28;20210;-75
2022/01/22 05:03:01;;;;;;;13.83;8.87;;;2.30;99.90;;;;;;5052699;28;20313;-74
2022/01/22 05:05:28;;;;;;;11.37;9.03;;;2.30;99.90;;;;;;5051829;28;20186;-74
2022/01/22 05:07:53;;;;;;;13.70;9.43;;;2.20;99.90;;;;;;5052408;28;20640;-74
2022/01/22 05:10:19;;;;;;;13.17;9.97;;;2.20;99.90;;;;;;5052573;28;20183;-74
2022/01/22 05:12:45;;;;;;;12.70;9.47;;;2.30;99.90;;;;;;5052556;28;20656;-75
2022/01/22 05:15:12;;;;;;;12.57;9.23;;;2.30;99.90;;;;;;5051777;28;20191;-75
2022/01/22 05:17:42;;;;;;;14.10;9.60;;;2.20;99.90;;;;;;5052544;28;20198;-75
2022/01/22 05:20:24;;;;;;;13.20;9.50;;;2.30;99.90;;;;;;5052523;28;20175;-75
2022/01/22 05:22:56;;;;;;;14.43;9.40;;;2.20;99.90;;;;;;5052318;28;20268;-75
2022/01/22 05:25:47;;;;;;;11.80;8.97;;;2.30;99.90;;;;;;5051485;28;20676;-74
2022/01/22 05:31:05;;;;;;;13.77;9.57;;;2.30;99.90;;;;;;5052217;28;20182;-75
2022/01/22 05:36:55;;;;;;;22.13;14.80;;;2.30;99.90;;;;;;5052052;28;20182;-75
2022/01/22 05:39:10;;;;;;;15.70;10.23;;;2.30;99.90;;;;;;5052168;28;20651;-76
2022/01/22 05:41:38;;;;;;;16.33;10.40;;;2.30;99.90;;;;;;5051958;28;20174;-75
2022/01/22 05:44:03;;;;;;;12.93;10.07;;;2.30;99.90;;;;;;5034065;28;20203;-75
2022/01/22 05:46:29;;;;;;;14.03;10.30;;;2.40;99.90;;;;;;5051180;28;20264;-75
2022/01/22 05:48:54;;;;;;;13.67;10.50;;;2.40;99.90;;;;;;5051904;28;20175;-75
2022/01/22 05:51:20;;;;;;;15.90;10.73;;;2.30;99.90;;;;;;5051886;28;20530;-75
2022/01/22 05:59:36;;;;;;;14.93;10.63;;;2.30;99.90;;;;;;5052263;28;20174;-75
2022/01/22 06:02:02;;;;;;;15.43;11.00;;;2.30;99.90;;;;;;5051689;28;20167;-75
2022/01/22 06:04:27;;;;;;;16.87;13.47;;;2.30;99.90;;;;;;5050946;28;20588;-75
2022/01/22 06:06:53;;;;;;;19.40;14.33;;;2.30;99.90;;;;;;5051561;28;20202;-75
2022/01/22 06:09:18;;;;;;;14.57;10.23;;;2.30;99.90;;;;;;5051657;28;20171;-75
2022/01/22 06:11:57;;;;;;;18.70;12.50;;;2.40;99.90;;;;;;5053143;28;20175;-75
2022/01/22 06:14:24;;;;;;;15.40;10.57;;;2.30;99.90;;;;;;5056539;28;20305;-75
2022/01/22 06:16:50;;;;;;;16.30;12.17;;;2.30;99.90;;;;;;5062669;28;20202;-74
2022/01/22 06:19:15;;;;;;;19.27;15.13;;;2.40;99.90;;;;;;5052611;28;20654;-75
2022/01/22 06:21:41;;;;;;;15.03;12.20;;;2.40;99.90;;;;;;5052764;28;20167;-75
2022/01/22 06:24:07;;;;;;;14.13;11.07;;;2.40;99.90;;;;;;5052955;28;20226;-74
2022/01/22 06:26:35;;;;;;;17.00;11.43;;;2.40;99.90;;;;;;5051933;28;20830;-74
2022/01/22 06:29:01;;;;;;;16.13;11.87;;;2.40;99.90;;;;;;5052347;28;20237;-74
2022/01/22 06:31:27;;;;;;;15.63;10.87;;;2.40;99.90;;;;;;5053228;28;20205;-74
2022/01/22 06:33:53;;;;;;;15.50;10.97;;;2.40;99.90;;;;;;5053824;28;20191;-74
2022/01/22 06:36:18;;;;;;;13.63;9.57;;;2.40;99.90;;;;;;5052678;28;20191;-75
2022/01/22 06:38:44;;;;;;;15.87;10.50;;;2.30;99.90;;;;;;5052588;28;20278;-75
2022/01/22 06:43:54;;;;;;;14.03;10.30;;;2.30;99.90;;;;;;5052861;28;20608;-74
2022/01/22 06:46:19;;;;;;;15.47;10.87;;;2.40;99.90;;;;;;5053748;28;20199;-74
2022/01/22 06:48:45;;;;;;;15.03;11.57;;;2.40;99.90;;;;;;5054924;28;20175;-74
2022/01/22 06:51:10;;;;;;;18.17;10.77;;;2.40;99.90;;;;;;5052109;28;20171;-75
2022/01/22 06:53:40;;;;;;;17.10;11.27;;;2.40;99.90;;;;;;5052662;28;20658;-75
2022/01/22 06:56:07;;;;;;;13.20;10.93;;;2.40;99.90;;;;;;5054520;28;20191;-74
2022/01/22 06:58:33;;;;;;;17.40;11.27;;;2.40;99.90;;;;;;5055237;28;20175;-75
2022/01/22 07:00:59;;;;;;;16.83;11.43;;;2.40;99.90;;;;;;5055142;28;20182;-75
2022/01/22 07:03:24;;;;;;;14.57;10.97;;;2.50;99.90;;;;;;5054810;28;20271;-75
2022/01/22 07:05:50;;;;;;;16.20;11.20;;;2.50;99.90;;;;;;5054593;28;20276;-75
2022/01/22 07:08:15;;;;;;;15.60;10.83;;;2.50;99.90;;;;;;5054833;28;20549;-75
2022/01/22 07:10:41;;;;;;;16.27;11.63;;;2.50;99.90;;;;;;5055112;28;20183;-75
2022/01/22 07:13:06;;;;;;;17.80;12.60;;;2.50;99.90;;;;;;5055028;28;20175;-74
2022/01/22 07:15:32;;;;;;;20.20;13.43;;;2.50;99.90;;;;;;5054276;28;20315;-75
2022/01/22 07:17:58;;;;;;;16.97;11.37;;;2.60;99.90;;;;;;5054798;28;20210;-75
2022/01/22 07:20:28;;;;;;;19.13;11.20;;;2.60;99.90;;;;;;5054788;28;20312;-75
2022/01/22 07:23:01;;;;;;;14.33;10.80;;;2.60;99.90;;;;;;5054731;28;20211;-75
2022/01/22 07:25:28;;;;;;;15.57;10.60;;;2.60;99.90;;;;;;5054203;28;20270;-75
2022/01/22 07:27:54;;;;;;;18.00;11.73;;;2.60;99.90;;;;;;5054730;28;20258;-75
2022/01/22 07:30:20;;;;;;;14.97;10.33;;;2.60;99.90;;;;;;5054581;28;20869;-75
2022/01/22 07:32:45;;;;;;;17.37;13.43;;;2.60;99.90;;;;;;5054375;28;20269;-74
2022/01/22 07:35:14;;;;;;;16.47;11.73;;;2.60;99.90;;;;;;5053938;28;20274;-75
2022/01/22 07:37:40;;;;;;;15.63;11.40;;;2.60;99.90;;;;;;5054264;28;20182;-75
2022/01/22 07:40:07;;;;;;;15.77;11.40;;;2.50;99.90;;;;;;5054225;28;20187;-73
2022/01/22 07:42:33;;;;;;;17.10;11.50;;;2.50;99.90;;;;;;5054178;28;20206;-75
2022/01/22 07:44:59;;;;;;;18.20;13.07;;;2.50;99.90;;;;;;5053579;28;20195;-74
2022/01/22 07:47:25;;;;;;;15.47;10.70;;;2.50;99.90;;;;;;5054000;28;20262;-75
2022/01/22 07:49:50;;;;;;;15.57;11.17;;;2.50;99.90;;;;;;5054414;28;20186;-74
2022/01/22 07:52:16;;;;;;;16.57;10.97;;;2.50;99.90;;;;;;5053931;28;20175;-75
2022/01/22 07:54:41;;;;;;;17.10;12.43;;;2.60;99.90;;;;;;5053491;28;20178;-76
2022/01/22 07:57:07;;;;;;;17.00;12.00;;;2.60;99.90;;;;;;5053422;28;20320;-76
2022/01/22 07:59:33;;;;;;;20.47;12.40;;;2.60;99.90;;;;;;5053796;28;20258;-75
2022/01/22 08:02:00;;;;;;;19.23;12.50;;;2.60;99.90;;;;;;5054107;28;20181;-75
2022/01/22 08:04:26;;;;;;;14.73;11.70;;;2.60;99.90;;;;;;5052039;28;20686;-76
2022/01/22 08:06:56;;;;;;;18.13;10.83;;;2.60;99.90;;;;;;5052634;28;20188;-76
2022/01/22 08:09:21;;;;;;;18.87;13.87;;;2.60;99.90;;;;;;5053239;28;20577;-75
2022/01/22 08:11:48;;;;;;;17.43;11.30;;;2.60;99.90;;;;;;5053717;28;20636;-75
2022/01/22 08:14:13;;;;;;;15.80;11.00;;;2.50;99.90;;;;;;5053266;28;20624;-76
2022/01/22 08:16:39;;;;;;;16.40;11.27;;;2.50;99.90;;;;;;5053413;28;20202;-75
2022/01/22 08:19:05;;;;;;;17.10;11.70;;;2.40;99.90;;;;;;5048997;28;20179;-75
2022/01/22 08:21:31;;;;;;;20.77;11.53;;;2.40;99.90;;;;;;5038754;28;20215;-75
2022/01/22 08:23:57;;;;;;;16.70;12.20;;;2.40;99.90;;;;;;5033667;28;20218;-75
2022/01/22 08:26:27;;;;;;;19.40;11.90;;;2.30;99.90;;;;;;5042116;28;20191;-75
2022/01/22 08:28:53;;;;;;;17.73;12.00;;;2.30;99.90;;;;;;5051503;28;20214;-74
2022/01/22 08:31:26;;;;;;;20.13;12.07;;;2.50;99.90;;;;;;5052807;28;20694;-75
2022/01/22 08:36:39;;;;;;;20.97;12.33;;;2.70;99.90;;;;;;5049709;28;20214;-75
2022/01/22 08:39:05;;;;;;;20.63;12.00;;;2.70;99.90;;;;;;5052317;28;20286;-74
2022/01/22 08:41:31;;;;;;;21.00;12.90;;;2.60;99.90;;;;;;5053126;28;20163;-75
2022/01/22 08:43:58;;;;;;;20.70;12.40;;;2.50;99.90;;;;;;5051953;28;20213;-75
2022/01/22 08:46:24;;;;;;;19.00;12.17;;;2.60;99.90;;;;;;5051713;28;20270;-76
2022/01/22 08:48:50;;;;;;;19.00;11.93;;;2.70;99.90;;;;;;5052778;28;20183;-75
2022/01/22 08:51:15;;;;;;;16.80;11.50;;;2.60;99.90;;;;;;5052859;28;20509;-75
2022/01/22 08:53:41;;;;;;;18.80;13.07;;;2.70;99.90;;;;;;5053517;28;20179;-74
2022/01/22 08:56:09;;;;;;;18.93;11.80;;;2.60;99.90;;;;;;5052665;28;20693;-76
2022/01/22 08:58:35;;;;;;;20.70;13.57;;;2.60;99.90;;;;;;5034248;28;20632;-75
2022/01/22 09:01:00;;;;;;;18.33;12.17;;;2.50;99.90;;;;;;5052533;28;20182;-76
2022/01/22 09:03:26;;;;;;;18.23;12.43;;;2.40;99.90;;;;;;5052502;28;20203;-76
2022/01/22 09:05:54;;;;;;;17.33;11.83;;;2.40;99.90;;;;;;5052561;28;20197;-76
2022/01/22 09:08:20;;;;;;;21.63;13.73;;;2.70;99.90;;;;;;5052028;28;20187;-76
2022/01/22 09:10:46;;;;;;;21.43;13.37;;;2.50;99.90;;;;;;5052505;28;20667;-76
2022/01/22 09:13:12;;;;;;;20.23;12.63;;;2.50;99.90;;;;;;5051764;28;20210;-76
2022/01/22 09:15:39;;;;;;;23.93;13.83;;;2.40;99.90;;;;;;5051595;28;20199;-75
2022/01/22 09:18:07;;;;;;;23.70;13.87;;;2.40;99.90;;;;;;5052747;28;20187;-76
2022/01/22 09:23:06;;;;;;;20.23;12.83;;;2.40;99.90;;;;;;5052160;28;20664;-75
2022/01/22 09:25:32;;;;;;;45.00;34.43;;;2.40;99.90;;;;;;5051995;28;20198;-76
2022/01/22 09:27:58;;;;;;;45.47;36.23;;;2.40;99.90;;;;;;5052394;28;20179;-76
2022/01/22 09:30:23;;;;;;;30.17;21.30;;;2.40;99.90;;;;;;5051708;28;20198;-76
2022/01/22 09:32:49;;;;;;;26.07;16.23;;;2.30;99.90;;;;;;5048559;28;20671;-76
2022/01/22 09:35:15;;;;;;;29.40;15.80;;;2.40;99.90;;;;;;5048408;28;20274;-75
2022/01/22 09:37:41;;;;;;;21.60;15.17;;;2.40;99.90;;;;;;5049120;28;20282;-76
2022/01/22 09:40:07;;;;;;;25.60;14.80;;;2.50;99.90;;;;;;5051352;28;20202;-76
2022/01/22 09:42:33;;;;;;;26.60;14.87;;;2.40;99.90;;;;;;5051817;28;20199;-76
2022/01/22 09:44:59;;;;;;;24.40;13.63;;;2.40;99.90;;;;;;5051151;28;20233;-77
2022/01/22 09:47:25;;;;;;;25.53;13.60;;;2.40;99.90;;;;;;5051289;28;20176;-76
2022/01/22 09:49:50;;;;;;;26.00;13.43;;;2.50;99.90;;;;;;5051977;28;20187;-77
2022/01/22 09:52:16;;;;;;;45.60;30.27;;;2.50;99.90;;;;;;5052407;28;20179;-77
2022/01/22 09:54:42;;;;;;;58.80;43.00;;;2.50;99.90;;;;;;5051684;28;20198;-76
2022/01/22 09:57:10;;;;;;;35.33;20.37;;;2.50;99.90;;;;;;5058254;28;20209;-75
2022/01/22 09:59:35;;;;;;;26.67;17.00;;;2.60;99.90;;;;;;5052071;28;20254;-76
2022/01/22 10:02:12;;;;;;;22.87;14.60;;;2.50;99.90;;;;;;5051514;28;20215;-76
2022/01/22 10:04:40;;;;;;;24.57;15.07;;;2.60;99.90;;;;;;5049124;28;20210;-75
2022/01/22 10:07:24;;;;;;;25.53;14.83;;;2.70;99.90;;;;;;5051287;28;20186;-75
2022/01/22 10:10:05;;;;;;;24.20;15.17;;;2.70;99.90;;;;;;5049775;28;20655;-76
2022/01/22 10:12:45;;;;;;;19.40;14.17;;;2.70;99.90;;;;;;5049519;28;20561;-75
2022/01/22 10:15:16;;;;;;;25.80;14.73;;;2.80;99.90;;;;;;5048898;28;20198;-75
2022/01/22 10:17:43;;;;;;;29.17;15.63;;;2.80;99.90;;;;;;5051313;28;20175;-75
2022/01/22 10:20:24;;;;;;;26.47;14.27;;;2.70;99.90;;;;;;5051792;28;20237;-76
2022/01/22 10:23:01;;;;;;;28.93;16.23;;;2.80;99.90;;;;;;5051486;28;20249;-76
2022/01/22 10:25:44;;;;;;;27.50;16.40;;;2.80;99.90;;;;;;5050982;28;20191;-76
2022/01/22 10:28:17;;;;;;;25.77;14.63;;;2.90;99.90;;;;;;5055208;28;20236;-75
2022/01/22 10:30:44;;;;;;;22.03;14.30;;;3.00;99.90;;;;;;5051451;28;20186;-75
2022/01/22 10:33:27;;;;;;;24.87;14.73;;;3.00;99.90;;;;;;5051578;28;20179;-74
2022/01/22 10:35:53;;;;;;;24.57;15.63;;;3.00;99.90;;;;;;5032934;28;20199;-75
2022/01/22 10:38:21;;;;;;;23.03;14.00;;;3.10;99.90;;;;;;5050455;28;20171;-76
2022/01/22 10:40:47;;;;;;;21.70;14.53;;;3.00;99.90;;;;;;5051217;28;20174;-76
2022/01/22 10:43:42;;;;;;;22.27;14.40;;;3.00;99.90;;;;;;5051507;28;20210;-76
2022/01/22 10:49:07;;;;;;;20.57;13.97;;;3.00;99.90;;;;;;5051383;28;20171;-76
2022/01/22 10:51:45;;;;;;;38.03;30.30;;;3.10;99.90;;;;;;5039603;28;20183;-76
2022/01/22 10:54:11;;;;;;;25.70;15.40;;;3.10;99.90;;;;;;5052299;28;20251;-76
2022/01/22 10:56:39;;;;;;;27.80;15.83;;;3.10;99.90;;;;;;5050998;28;20687;-77
2022/01/22 10:59:12;;;;;;;22.57;15.03;;;3.10;99.90;;;;;;5052481;28;20179;-76
2022/01/22 11:01:45;;;;;;;20.27;13.67;;;3.20;99.90;;;;;;5053625;28;20205;-77
2022/01/22 11:04:14;;;;;;;20.60;13.33;;;3.10;99.90;;;;;;5052759;28;20214;-76
2022/01/22 11:06:51;;;;;;;21.43;14.13;;;3.20;99.90;;;;;;5051775;28;20200;-77
2022/01/22 11:09:17;;;;;;;21.70;13.60;;;3.30;99.90;;;;;;5051951;28;20179;-76
2022/01/22 11:11:43;;;;;;;21.60;13.50;;;3.30;99.90;;;;;;5053049;28;20168;-77
2022/01/22 11:14:10;;;;;;;20.97;13.70;;;3.30;99.90;;;;;;5052898;28;20262;-78
2022/01/22 11:16:41;;;;;;;23.03;13.57;;;3.30;99.90;;;;;;5052733;28;20210;-77
2022/01/22 11:19:09;;;;;;;24.20;13.73;;;3.40;99.90;;;;;;5052889;28;20207;-77
2022/01/22 11:21:37;;;;;;;19.60;13.73;;;3.40;99.90;;;;;;5052366;28;20190;-76
2022/01/22 11:24:04;;;;;;;22.50;15.67;;;3.30;99.90;;;;;;5034316;28;20238;-75
2022/01/22 11:26:30;;;;;;;21.10;15.07;;;3.40;99.90;;;;;;5052579;28;20194;-76
2022/01/22 11:28:57;;;;;;;24.87;15.07;;;3.30;99.90;;;;;;5052713;28;20206;-77
2022/01/22 11:31:25;;;;;;;24.83;14.80;;;3.30;99.90;;;;;;5052190;28;20647;-77
2022/01/22 11:33:53;;;;;;;20.00;14.07;;;3.40;99.90;;;;;;5053122;28;20187;-77
2022/01/22 11:36:25;;;;;;;23.13;13.83;;;3.40;99.90;;;;;;5051103;28;20207;-77
2022/01/22 11:38:56;;;;;;;18.47;13.03;;;3.40;99.90;;;;;;5052464;28;20202;-78
2022/01/22 11:41:23;;;;;;;22.00;13.80;;;3.40;99.90;;;;;;5056049;28;20194;-77
2022/01/22 11:46:33;;;;;;;19.20;12.70;;;3.50;99.90;;;;;;5052709;28;20183;-77
2022/01/22 11:49:25;;;;;;;23.70;13.50;;;3.50;99.90;;;;;;5054263;28;20187;-77
2022/01/22 11:51:53;;;;;;;20.27;13.80;;;3.40;99.90;;;;;;5053857;28;20217;-77
2022/01/22 11:54:21;;;;;;;23.27;14.13;;;3.50;99.90;;;;;;5054387;28;20254;-76
2022/01/22 11:56:53;;;;;;;20.27;13.07;;;3.50;99.90;;;;;;5053703;28;20194;-79
2022/01/22 11:59:21;;;;;;;19.92;14.27;;;3.50;99.90;;;;;;5055410;28;20408;-78
2022/01/22 12:04:15;;;;;;;17.17;12.60;;;3.60;99.90;;;;;;5056169;28;20215;-78
2022/01/22 12:07:02;;;;;;;20.33;12.67;;;3.70;99.90;;;;;;5055365;28;20248;-78
2022/01/22 12:09:31;;;;;;;19.67;12.67;;;3.60;99.90;;;;;;5054774;28;20205;-76
2022/01/22 12:15:03;;;;;;;20.17;12.70;;;3.50;99.90;;;;;;5053763;28;20741;-77
2022/01/22 12:17:47;;;;;;;18.27;12.40;;;3.60;99.90;;;;;;5053396;28;20683;-76
2022/01/22 12:23:41;;;;;;;19.10;12.70;;;3.70;99.90;;;;;;5053982;28;20575;-76
2022/01/22 12:26:07;;;;;;;18.30;12.03;;;3.70;99.90;;;;;;5053028;28;20301;-76
2022/01/22 12:28:44;;;;;;;20.53;12.47;;;3.70;99.90;;;;;;5053363;28;20179;-76
2022/01/22 12:31:19;;;;;;;17.67;12.60;;;3.80;99.90;;;;;;5053719;28;20371;-77
2022/01/22 12:33:45;;;;;;;17.73;12.93;;;3.80;99.90;;;;;;5053457;28;20276;-77
2022/01/22 12:36:24;;;;;;;19.53;13.23;;;3.80;99.90;;;;;;5052897;28;20663;-76
2022/01/22 12:39:07;;;;;;;18.87;12.03;;;3.80;99.90;;;;;;5053213;28;20199;-77
2022/01/22 12:41:46;;;;;;;21.83;13.70;;;3.90;99.90;;;;;;5053281;28;20183;-76
2022/01/22 12:44:28;;;;;;;17.00;13.27;;;3.90;99.90;;;;;;5053192;28;20226;-77
2022/01/22 12:46:56;;;;;;;20.30;11.93;;;3.90;99.90;;;;;;5053318;28;20537;-77
2022/01/22 12:49:23;;;;;;;16.70;12.27;;;3.90;99.90;;;;;;5053209;28;20180;-76
2022/01/22 12:51:56;;;;;;;19.93;12.50;;;4.00;99.90;;;;;;5052453;28;20265;-77
2022/01/22 12:54:36;;;;;;;16.10;12.00;;;4.00;99.90;;;;;;5052598;28;20186;-76
2022/01/22 12:57:05;;;;;;;17.80;12.17;;;4.00;99.90;;;;;;5052916;28;20605;-77
2022/01/22 12:59:34;;;;;;;15.13;11.53;;;3.90;99.90;;;;;;5052830;28;20663;-76
2022/01/22 13:02:00;;;;;;;16.07;11.93;;;4.00;99.90;;;;;;5052797;28;20254;-77
2022/01/22 13:04:25;;;;;;;15.23;11.50;;;4.00;99.90;;;;;;5052509;28;20326;-76
2022/01/22 13:06:53;;;;;;;14.17;11.37;;;4.00;99.90;;;;;;5052907;28;20221;-77
2022/01/22 13:09:19;;;;;;;15.87;12.47;;;4.10;99.90;;;;;;5052853;28;20332;-76
2022/01/22 13:11:50;;;;;;;16.43;12.03;;;4.10;99.90;;;;;;5052793;28;20807;-77
2022/01/22 13:14:27;;;;;;;15.40;10.93;;;4.10;99.90;;;;;;5052697;28;20179;-77
2022/01/22 13:16:55;;;;;;;12.53;7.77;;;4.30;99.90;;;;;;5052872;28;20226;-76
2022/01/22 13:19:22;;;;;;;9.90;7.53;;;4.20;99.90;;;;;;5052613;28;20187;-76
2022/01/22 13:21:53;;;;;;;9.70;7.80;;;4.20;99.90;;;;;;5052347;28;20258;-76
2022/01/22 13:24:25;;;;;;;11.57;6.87;;;4.30;99.90;;;;;;5051971;28;20241;-76
2022/01/22 13:29:33;;;;;;;9.03;6.83;;;4.20;99.90;;;;;;5053403;28;20547;-76
2022/01/22 13:32:02;;;;;;;9.37;6.57;;;4.20;99.90;;;;;;5052485;28;20262;-75
2022/01/22 13:34:45;;;;;;;7.80;7.00;;;4.10;99.90;;;;;;5051711;28;20178;-77
2022/01/22 13:48:33;;;;;;;9.33;7.47;;;4.10;99.90;;;;;;5053366;28;20265;-76
2022/01/22 13:51:01;;;;;;;10.37;7.27;;;4.10;99.90;;;;;;5052349;28;20183;-77
2022/01/22 13:53:27;;;;;;;8.70;7.63;;;4.20;99.90;;;;;;5052175;28;20209;-77
2022/01/22 13:56:06;;;;;;;10.23;7.73;;;4.10;99.90;;;;;;5051538;28;20195;-77
2022/01/22 13:58:32;;;;;;;11.73;7.97;;;4.10;99.90;;;;;;5052611;28;20175;-77
2022/01/22 14:01:04;;;;;;;11.43;8.43;;;4.20;99.90;;;;;;5052369;28;20663;-76
2022/01/22 14:03:37;;;;;;;10.50;8.10;;;4.10;99.90;;;;;;5052103;28;20223;-77
2022/01/22 14:06:04;;;;;;;12.93;8.63;;;4.20;99.90;;;;;;5051632;28;20203;-78
2022/01/22 14:08:33;;;;;;;10.87;8.27;;;4.20;99.90;;;;;;5051779;28;20678;-77
2022/01/22 14:11:10;;;;;;;14.20;9.00;;;4.20;99.90;;;;;;5052045;28;20175;-77
2022/01/22 14:13:38;;;;;;;12.50;9.10;;;4.30;99.90;;;;;;5051577;28;20556;-77
2022/01/22 14:16:20;;;;;;;10.70;8.30;;;4.30;99.90;;;;;;5051206;28;20227;-77
2022/01/22 14:18:47;;;;;;;11.90;7.80;;;4.40;99.90;;;;;;5051684;28;20183;-77
2022/01/22 14:21:19;;;;;;;11.50;8.63;;;4.30;99.90;;;;;;5051665;28;20172;-76
2022/01/22 14:23:47;;;;;;;12.30;7.83;;;4.20;99.90;;;;;;5052229;28;20673;-78
2022/01/22 14:26:25;;;;;;;10.57;8.20;;;4.10;99.90;;;;;;5051523;28;20205;-77
2022/01/22 14:28:57;;;;;;;10.47;8.97;;;4.10;99.90;;;;;;5051782;28;20191;-77
2022/01/22 14:31:41;;;;;;;14.00;9.17;;;4.10;99.90;;;;;;5051809;28;20555;-78
2022/01/22 14:34:31;;;;;;;14.37;9.80;;;4.20;99.90;;;;;;5051769;28;20262;-78
2022/01/22 14:36:57;;;;;;;13.47;8.93;;;4.20;99.90;;;;;;5051375;28;20199;-78
2022/01/22 14:44:36;;;;;;;11.50;9.10;;;4.10;99.90;;;;;;5050938;28;20686;-78